createdAt,value
2022-12-17T00:01:57.991Z,5.50
2022-12-17T00:12:19.007Z,5.82
2022-12-17T00:22:41.039Z,5.81
2022-12-17T00:33:01.237Z,5.70
2022-12-17T00:43:24.990Z,5.69
2022-12-17T00:53:45.400Z,5.86
2022-12-17T01:04:07.532Z,5.67
2022-12-17T01:14:27.803Z,5.44
2022-12-17T01:24:49.753Z,4.63
2022-12-17T01:35:10.172Z,5.25
2022-12-17T01:45:33.596Z,4.71
2022-12-17T01:56:03.111Z,5.33
2022-12-17T02:06:30.926Z,4.63
2022-12-17T02:16:54.795Z,4.20
2022-12-17T02:27:16.855Z,4.56
2022-12-17T02:37:37.435Z,3.21
2022-12-17T02:47:59.446Z,4.05
2022-12-17T02:58:20.197Z,3.37
2022-12-17T03:08:42.395Z,3.08
2022-12-17T03:19:03.307Z,4.75
2022-12-17T03:29:25.282Z,5.12
2022-12-17T03:39:45.630Z,5.25
2022-12-17T03:50:22.582Z,5.19
2022-12-17T04:00:43.377Z,5.05
2022-12-17T04:11:05.439Z,5.03
2022-12-17T04:21:26.637Z,4.93
2022-12-17T04:31:48.752Z,4.67
2022-12-17T04:42:09.294Z,4.74
2022-12-17T04:52:31.053Z,4.54
2022-12-17T05:02:51.615Z,4.63
2022-12-17T05:13:16.955Z,4.28
2022-12-17T05:23:46.046Z,4.26
2022-12-17T05:34:08.128Z,4.16
2022-12-17T05:44:28.869Z,4.20
2022-12-17T05:54:51.057Z,3.96
2022-12-17T06:05:11.587Z,4.01
2022-12-17T06:15:33.553Z,4.22
2022-12-17T06:25:54.395Z,4.08
2022-12-17T06:36:22.234Z,4.11
2022-12-17T06:46:43.835Z,4.00
2022-12-17T06:57:05.824Z,3.79
2022-12-17T07:07:26.253Z,3.71
2022-12-17T07:17:48.584Z,3.81
2022-12-17T07:28:12.556Z,3.94
2022-12-17T07:38:34.227Z,4.03
2022-12-17T07:48:54.716Z,3.08
2022-12-17T07:59:16.544Z,2.64
2022-12-17T08:09:36.952Z,3.68
2022-12-17T08:20:04.792Z,4.01
2022-12-17T08:30:26.608Z,3.02
2022-12-17T08:40:51.599Z,3.96
2022-12-17T08:51:12.582Z,3.94
2022-12-17T09:01:34.950Z,4.65
2022-12-17T09:11:55.863Z,3.60
2022-12-17T09:22:18.045Z,3.92
2022-12-17T09:32:38.894Z,4.49
2022-12-17T09:43:07.251Z,4.49
2022-12-17T09:53:33.743Z,4.72
2022-12-17T10:04:04.322Z,5.20
2022-12-17T10:14:28.317Z,5.16
2022-12-17T10:24:50.460Z,5.29
2022-12-17T10:35:11.181Z,5.22
2022-12-17T10:45:41.977Z,4.96
2022-12-17T10:56:10.506Z,4.84
2022-12-17T11:06:42.066Z,5.21
2022-12-17T11:17:06.890Z,5.39
2022-12-17T11:27:34.709Z,5.26
2022-12-17T11:37:58.877Z,4.74
2022-12-17T11:48:24.512Z,4.71
2022-12-17T11:58:51.133Z,4.79
2022-12-17T12:09:18.016Z,4.57
2022-12-17T12:19:44.274Z,4.43
2022-12-17T12:30:10.693Z,4.24
2022-12-17T12:40:35.378Z,4.39
2022-12-17T12:51:02.907Z,3.95
2022-12-17T13:01:23.938Z,3.89
2022-12-17T13:11:31.735Z,3.95
2022-12-17T13:21:36.018Z,4.39
2022-12-17T13:31:49.394Z,4.09
2022-12-17T13:41:54.641Z,3.97
2022-12-17T13:52:11.763Z,4.49
2022-12-17T14:02:26.354Z,4.22
2022-12-17T14:12:34.754Z,4.22
2022-12-17T14:22:39.811Z,4.36
2022-12-17T14:32:45.014Z,4.64
2022-12-17T14:42:48.374Z,4.12
2022-12-17T14:52:55.013Z,4.05
2022-12-17T15:03:01.043Z,3.96
2022-12-17T15:13:08.001Z,3.60
2022-12-17T15:23:16.250Z,3.64
2022-12-17T15:33:20.800Z,3.81
2022-12-17T15:43:24.111Z,3.39
2022-12-17T15:53:28.698Z,3.38
2022-12-17T16:03:31.901Z,3.23
2022-12-17T16:16:21.798Z,2.84
2022-12-17T16:26:25.458Z,2.84
2022-12-17T16:36:29.992Z,2.62
2022-12-17T16:46:34.584Z,2.39
2022-12-17T16:56:40.598Z,2.52
2022-12-17T17:06:46.106Z,2.78
2022-12-17T17:16:50.610Z,2.80
2022-12-17T17:26:54.263Z,2.77
2022-12-17T17:36:58.810Z,2.81
2022-12-17T17:47:02.202Z,2.71
2022-12-17T17:57:06.865Z,2.90
2022-12-17T18:07:25.754Z,2.75
2022-12-17T18:17:31.134Z,2.85
2022-12-17T18:27:34.481Z,2.94
2022-12-17T18:37:39.332Z,2.97
2022-12-17T18:47:44.584Z,3.10
2022-12-17T18:57:49.143Z,2.83
2022-12-17T19:07:52.261Z,3.04
2022-12-17T19:17:57.227Z,2.94
2022-12-17T19:28:01.861Z,3.05
2022-12-17T19:38:06.508Z,2.57
2022-12-17T19:48:09.586Z,1.54
2022-12-17T19:58:14.562Z,1.99
2022-12-17T20:08:22.290Z,1.85
2022-12-17T20:18:27.114Z,2.58
2022-12-17T20:28:30.518Z,1.68
2022-12-17T20:38:35.948Z,2.69
2022-12-17T20:48:40.648Z,2.26
2022-12-17T20:58:45.562Z,2.37
2022-12-17T21:09:07.120Z,2.68
2022-12-17T21:19:35.416Z,1.73
2022-12-17T21:29:42.143Z,1.00
2022-12-17T21:39:46.776Z,1.41
2022-12-17T21:49:49.839Z,1.86
2022-12-17T21:59:54.485Z,1.92
2022-12-17T22:10:26.258Z,1.75
2022-12-17T22:20:23.124Z,1.76
2022-12-17T22:30:43.974Z,1.52
2022-12-17T22:44:36.460Z,1.56
2022-12-17T22:51:21.388Z,1.33
2022-12-17T23:01:36.807Z,1.35
2022-12-17T23:11:39.980Z,1.18
2022-12-17T23:21:44.457Z,1.21
2022-12-17T23:31:48.194Z,0.91
2022-12-17T23:41:55.007Z,0.77
2022-12-17T23:51:58.099Z,0.80
